Terminal Aerodrome Forecast
Issued by NWS

Home | Current Version | Previous Version | Text Only | Print | Product List | Glossary On
Versions: 1 2 3 4 5 6 7 8 9 10 11 12 13 14 15 16 17 18 19 20 21 22 23 24 25 26 27 28 29 30
000
FTUS41 KBOX 031725
TAFACK
TAF
KACK 031725Z 0318/0418 20012KT P6SM BKN200
     FM040900 21012G19KT 6SM BR BKN008
     FM041000 21012G19KT 6SM BR BKN003
     FM041300 21013G20KT 6SM BR BKN008
     FM041500 22013G21KT P6SM VCSH BKN010
     FM041600 22013G20KT P6SM VCSH BKN025=

USA.gov is the U.S. government's official web portal to all federal, state and local government web resources and services.